Time;durP1;ratioP1;P1;durP2;ratioP2;P2;SDS_P1;SDS_P2;PMS_P1;PMS_P2;Temp;Humidity;BMP_temperature;BMP_pressure;BME280_temperature;BME280_humidity;BME280_pressure;Samples;Min_cycle;Max_cycle;Signal;HPM_P1;HPM_P2
2023/05/07 00:02:08;;;;;;;7.88;6.78;;;12.60;99.90;;;;;;5063106;28;20194;-90
2023/05/07 00:04:37;;;;;;;7.95;6.53;;;12.60;99.90;;;;;;5071349;28;20215;-90
2023/05/07 00:07:04;;;;;;;8.00;6.97;;;12.60;99.90;;;;;;5071320;28;20221;-89
2023/05/07 00:09:31;;;;;;;8.65;6.63;;;12.50;99.90;;;;;;5073688;28;20261;-89
2023/05/07 00:11:58;;;;;;;8.82;7.38;;;12.60;99.90;;;;;;5068167;28;20209;-90
2023/05/07 00:14:25;;;;;;;10.90;7.25;;;12.50;99.90;;;;;;5072091;28;20205;-90
2023/05/07 00:16:56;;;;;;;8.75;7.03;;;12.60;99.90;;;;;;5066857;28;20204;-89
2023/05/07 00:19:23;;;;;;;7.40;5.65;;;12.60;99.90;;;;;;5062215;28;20205;-89
2023/05/07 00:21:50;;;;;;;6.50;5.88;;;12.60;99.90;;;;;;5069241;28;20202;-89
2023/05/07 00:24:17;;;;;;;8.52;6.63;;;12.50;99.90;;;;;;5069943;28;20257;-89
2023/05/07 00:26:43;;;;;;;8.35;6.07;;;12.40;99.90;;;;;;5055968;28;20202;-90
2023/05/07 00:29:10;;;;;;;8.98;6.70;;;12.40;99.90;;;;;;5052259;28;20208;-89
2023/05/07 00:31:37;;;;;;;7.50;6.60;;;12.30;99.90;;;;;;5075553;28;20589;-89
2023/05/07 00:34:05;;;;;;;8.80;6.38;;;12.30;99.90;;;;;;5080151;28;20197;-89
2023/05/07 00:36:32;;;;;;;8.30;6.38;;;12.20;99.90;;;;;;5072571;28;20204;-89
2023/05/07 00:39:03;;;;;;;8.00;6.95;;;12.20;99.90;;;;;;5076840;28;20201;-89
2023/05/07 00:41:30;;;;;;;8.82;7.85;;;12.20;99.90;;;;;;5073881;28;20209;-89
2023/05/07 00:43:57;;;;;;;9.82;8.60;;;12.30;99.90;;;;;;5070631;28;20193;-89
2023/05/07 00:46:25;;;;;;;11.07;8.80;;;12.40;99.90;;;;;;5074764;28;20236;-89
2023/05/07 00:48:53;;;;;;;7.97;7.15;;;12.60;99.90;;;;;;5039960;28;20932;-90
2023/05/07 00:51:21;;;;;;;9.65;6.93;;;12.70;99.90;;;;;;5074467;28;20207;-90
2023/05/07 00:53:48;;;;;;;11.25;7.18;;;12.70;99.90;;;;;;5078197;28;20593;-89
2023/05/07 00:56:16;;;;;;;9.23;6.40;;;12.70;99.90;;;;;;5075366;28;20205;-89
2023/05/07 00:58:43;;;;;;;8.50;6.20;;;12.80;99.90;;;;;;5073836;28;20202;-90
2023/05/07 01:01:10;;;;;;;8.60;7.70;;;12.70;99.90;;;;;;5068365;28;20198;-89
2023/05/07 01:03:37;;;;;;;8.93;7.40;;;12.70;99.90;;;;;;5054918;28;20254;-89
2023/05/07 01:06:07;;;;;;;8.23;6.47;;;12.70;99.90;;;;;;5072818;28;20221;-90
2023/05/07 01:08:36;;;;;;;6.95;6.25;;;12.70;99.90;;;;;;5076679;28;20209;-90
2023/05/07 01:11:03;;;;;;;20.45;17.05;;;12.60;99.90;;;;;;5082752;28;20198;-90
2023/05/07 01:13:31;;;;;;;12.93;11.43;;;12.60;99.90;;;;;;5066625;28;20205;-90
2023/05/07 01:15:59;;;;;;;10.95;9.75;;;12.60;99.90;;;;;;5066155;28;20205;-90
2023/05/07 01:18:26;;;;;;;11.13;10.02;;;12.50;99.90;;;;;;5063899;28;20701;-89
2023/05/07 01:20:54;;;;;;;9.77;7.45;;;12.50;99.90;;;;;;5061301;28;20198;-90
2023/05/07 01:23:23;;;;;;;9.32;8.00;;;12.50;99.90;;;;;;5069923;28;20197;-90
2023/05/07 01:25:54;;;;;;;10.35;6.60;;;12.50;99.90;;;;;;5078662;28;20228;-89
2023/05/07 01:28:21;;;;;;;6.30;5.70;;;12.40;99.90;;;;;;5052442;28;20284;-89
2023/05/07 01:31:08;;;;;;;9.55;6.72;;;12.40;99.90;;;;;;5062799;28;20205;-90
2023/05/07 01:33:37;;;;;;;10.27;7.43;;;12.20;99.90;;;;;;5068290;28;20211;-89
2023/05/07 01:36:06;;;;;;;13.52;9.30;;;12.30;99.90;;;;;;5052104;28;20197;-89
2023/05/07 01:38:37;;;;;;;8.18;6.70;;;12.30;99.90;;;;;;5056416;28;20223;-90
2023/05/07 01:41:04;;;;;;;9.43;8.40;;;12.30;99.90;;;;;;5070911;28;20198;-90
2023/05/07 01:43:32;;;;;;;7.03;5.80;;;12.40;99.90;;;;;;5055414;28;20197;-88
2023/05/07 01:46:00;;;;;;;8.93;5.75;;;12.40;99.90;;;;;;5071033;28;20228;-89
2023/05/07 01:48:28;;;;;;;8.32;6.30;;;12.40;99.90;;;;;;5071396;28;20208;-90
2023/05/07 01:50:56;;;;;;;10.50;6.97;;;12.20;99.90;;;;;;5055004;28;20348;-90
2023/05/07 01:53:23;;;;;;;11.55;9.35;;;12.20;99.90;;;;;;5071450;28;20193;-89
2023/05/07 01:55:51;;;;;;;8.90;7.40;;;12.20;99.90;;;;;;5077240;28;20204;-90
2023/05/07 01:58:19;;;;;;;8.88;7.90;;;12.30;99.90;;;;;;5070165;28;20541;-89
2023/05/07 02:00:46;;;;;;;10.98;7.38;;;12.30;99.90;;;;;;5064572;28;20258;-88
2023/05/07 02:03:13;;;;;;;9.07;7.70;;;12.30;99.90;;;;;;5047493;28;20209;-89
2023/05/07 02:05:40;;;;;;;6.45;5.30;;;12.30;99.90;;;;;;5064324;28;20623;-90
2023/05/07 02:08:07;;;;;;;10.10;7.80;;;12.40;99.90;;;;;;5067130;28;20200;-90
2023/05/07 02:10:35;;;;;;;9.07;6.63;;;12.40;99.90;;;;;;5067548;28;20239;-89
2023/05/07 02:13:04;;;;;;;7.07;6.38;;;12.40;99.90;;;;;;5053944;28;20224;-89
2023/05/07 02:15:30;;;;;;;10.27;7.47;;;12.20;99.90;;;;;;5065339;28;20201;-90
2023/05/07 02:18:02;;;;;;;8.15;7.20;;;12.20;99.90;;;;;;5065354;28;20216;-89
2023/05/07 02:20:29;;;;;;;7.72;6.93;;;12.20;99.90;;;;;;5067117;28;20204;-90
2023/05/07 02:22:57;;;;;;;9.10;6.68;;;12.10;99.90;;;;;;5032089;28;20286;-90
2023/05/07 02:25:25;;;;;;;7.80;6.65;;;12.10;99.90;;;;;;5069338;28;20592;-89
2023/05/07 02:27:52;;;;;;;8.25;5.82;;;12.00;99.90;;;;;;5076728;28;20207;-90
2023/05/07 02:30:21;;;;;;;6.90;6.20;;;12.00;99.90;;;;;;5064679;28;20201;-89
2023/05/07 02:32:48;;;;;;;7.15;6.45;;;11.90;99.90;;;;;;5066923;28;20246;-90
2023/05/07 02:35:15;;;;;;;6.88;6.00;;;11.90;99.90;;;;;;5073029;28;20197;-90
2023/05/07 02:37:42;;;;;;;8.90;6.10;;;11.90;99.90;;;;;;5062163;28;20197;-89
2023/05/07 02:40:10;;;;;;;7.10;6.25;;;11.80;99.90;;;;;;5072695;28;20201;-90
2023/05/07 02:42:36;;;;;;;7.15;5.55;;;11.80;99.90;;;;;;5075256;28;20207;-90
2023/05/07 02:45:04;;;;;;;10.80;5.80;;;11.80;99.90;;;;;;5072915;28;20212;-89
2023/05/07 02:47:33;;;;;;;8.30;5.95;;;11.70;99.90;;;;;;5070078;28;20197;-89
2023/05/07 02:50:00;;;;;;;7.28;6.38;;;11.70;99.90;;;;;;5054408;28;20197;-90
2023/05/07 02:52:27;;;;;;;7.57;5.80;;;11.60;99.90;;;;;;5071587;28;20197;-90
2023/05/07 02:54:54;;;;;;;7.90;6.20;;;11.80;99.90;;;;;;5071232;28;20200;-89
2023/05/07 02:57:21;;;;;;;8.77;6.38;;;11.90;99.90;;;;;;5068525;28;20204;-90
2023/05/07 02:59:48;;;;;;;7.50;5.75;;;11.90;99.90;;;;;;5048544;28;20607;-90
2023/05/07 03:02:14;;;;;;;7.68;5.40;;;11.90;99.90;;;;;;5063167;28;20288;-89
2023/05/07 03:04:43;;;;;;;6.57;5.22;;;11.80;99.90;;;;;;5073139;28;20223;-90
2023/05/07 03:07:10;;;;;;;7.28;5.97;;;11.70;99.90;;;;;;5071654;28;20201;-89
2023/05/07 03:09:36;;;;;;;6.65;6.05;;;11.70;99.90;;;;;;5072225;28;20205;-90
2023/05/07 03:12:03;;;;;;;8.45;5.60;;;11.70;99.90;;;;;;5064745;28;20197;-89
2023/05/07 03:14:30;;;;;;;5.57;5.05;;;11.80;99.90;;;;;;5074998;28;20204;-90
2023/05/07 03:16:57;;;;;;;5.90;5.30;;;11.70;99.90;;;;;;5054336;28;20193;-90
2023/05/07 03:19:24;;;;;;;7.05;5.10;;;11.60;99.90;;;;;;5052737;28;20270;-90
2023/05/07 03:21:53;;;;;;;5.30;4.70;;;11.50;99.90;;;;;;5070072;28;20279;-90
2023/05/07 03:24:20;;;;;;;8.63;4.90;;;11.50;99.90;;;;;;5070251;28;20661;-90
2023/05/07 03:26:47;;;;;;;6.70;5.00;;;11.40;99.90;;;;;;5072074;28;20213;-90
2023/05/07 03:29:14;;;;;;;8.25;5.13;;;11.40;99.90;;;;;;5073333;28;20205;-90
2023/05/07 03:31:40;;;;;;;6.63;4.90;;;11.40;99.90;;;;;;5071021;28;20217;-90
2023/05/07 03:34:07;;;;;;;5.28;4.57;;;11.40;99.90;;;;;;5071985;28;20202;-90
2023/05/07 03:36:34;;;;;;;9.80;4.97;;;11.40;99.90;;;;;;5067249;28;20206;-90
2023/05/07 03:39:03;;;;;;;5.47;4.95;;;11.40;99.90;;;;;;5055723;28;20292;-90
2023/05/07 03:41:30;;;;;;;5.40;4.90;;;11.30;99.90;;;;;;5070762;28;20194;-89
2023/05/07 03:43:57;;;;;;;5.55;4.93;;;11.40;99.90;;;;;;5072045;28;20201;-90
2023/05/07 03:46:25;;;;;;;5.38;4.82;;;11.40;99.90;;;;;;5073644;28;20220;-90
2023/05/07 03:48:53;;;;;;;5.82;5.22;;;11.40;99.90;;;;;;5077510;28;20201;-89
2023/05/07 03:51:19;;;;;;;6.32;5.10;;;11.50;99.90;;;;;;5079211;28;20195;-89
2023/05/07 03:53:46;;;;;;;6.28;4.88;;;11.60;99.90;;;;;;5082469;28;20200;-90
2023/05/07 03:56:15;;;;;;;6.22;4.20;;;11.60;99.90;;;;;;5078669;28;20213;-89
2023/05/07 03:58:41;;;;;;;6.63;4.85;;;11.50;99.90;;;;;;5075638;28;20201;-90
2023/05/07 04:01:09;;;;;;;5.65;4.38;;;11.40;99.90;;;;;;5055425;28;20743;-90
2023/05/07 04:03:36;;;;;;;7.60;4.72;;;11.30;99.90;;;;;;5073471;28;20274;-90
2023/05/07 04:06:03;;;;;;;8.52;5.18;;;11.30;99.90;;;;;;5073509;28;20225;-89
2023/05/07 04:08:30;;;;;;;6.70;4.80;;;11.30;99.90;;;;;;5072966;28;20207;-89
2023/05/07 04:10:57;;;;;;;8.98;5.22;;;11.40;99.90;;;;;;5070559;28;20293;-90
2023/05/07 04:13:26;;;;;;;5.03;4.35;;;11.40;99.90;;;;;;5070745;28;20205;-89
2023/05/07 04:15:53;;;;;;;6.45;4.75;;;11.40;99.90;;;;;;5069346;28;20204;-89
2023/05/07 04:18:21;;;;;;;5.68;4.38;;;11.30;99.90;;;;;;5075559;28;20225;-89
2023/05/07 04:20:49;;;;;;;6.43;4.65;;;11.30;99.90;;;;;;5056118;28;20208;-90
2023/05/07 04:23:15;;;;;;;8.05;4.55;;;11.20;99.90;;;;;;5075409;28;20198;-90
2023/05/07 04:25:42;;;;;;;6.25;4.63;;;11.20;99.90;;;;;;5063849;28;20580;-90
2023/05/07 04:28:09;;;;;;;6.05;4.05;;;11.30;99.90;;;;;;5053517;28;20200;-89
2023/05/07 04:30:38;;;;;;;6.20;4.63;;;11.40;99.90;;;;;;5059511;28;20217;-90
2023/05/07 04:33:06;;;;;;;8.20;4.53;;;11.40;99.90;;;;;;5057010;28;20197;-89
2023/05/07 04:35:33;;;;;;;6.60;4.18;;;11.30;99.90;;;;;;5074318;28;20653;-90
2023/05/07 04:38:00;;;;;;;5.43;4.38;;;11.40;99.90;;;;;;5074738;28;20205;-89
2023/05/07 04:40:27;;;;;;;4.90;4.40;;;11.40;99.90;;;;;;5069688;28;20212;-89
2023/05/07 04:42:54;;;;;;;5.22;4.15;;;11.50;99.90;;;;;;5073639;28;20209;-90
2023/05/07 04:45:20;;;;;;;4.88;4.20;;;11.60;99.90;;;;;;5074248;28;20204;-90
2023/05/07 04:47:49;;;;;;;4.40;4.00;;;11.70;99.90;;;;;;5073308;28;20198;-90
2023/05/07 04:50:17;;;;;;;4.82;4.30;;;11.70;99.90;;;;;;5075127;28;20209;-89
2023/05/07 04:52:45;;;;;;;5.75;4.80;;;11.70;99.90;;;;;;5071727;28;20603;-90
2023/05/07 04:55:12;;;;;;;7.47;4.75;;;11.80;99.90;;;;;;5065880;28;20202;-89
2023/05/07 04:57:40;;;;;;;6.15;4.40;;;11.90;99.90;;;;;;5051811;28;20194;-89
2023/05/07 05:00:09;;;;;;;6.43;4.60;;;12.00;99.90;;;;;;5073966;28;20662;-89
2023/05/07 05:02:36;;;;;;;4.95;4.35;;;12.10;99.90;;;;;;5069769;28;20718;-90
2023/05/07 05:05:05;;;;;;;6.32;4.10;;;12.10;99.90;;;;;;5054407;28;20550;-89
2023/05/07 05:07:32;;;;;;;4.80;3.90;;;12.00;99.90;;;;;;5075657;28;20231;-89
2023/05/07 05:09:59;;;;;;;4.63;4.20;;;11.90;99.90;;;;;;5058040;28;20281;-89
2023/05/07 05:12:26;;;;;;;5.00;4.05;;;11.80;99.90;;;;;;5059755;28;20567;-90
2023/05/07 05:14:53;;;;;;;4.75;4.28;;;11.80;99.90;;;;;;5051056;28;20217;-90
2023/05/07 05:17:19;;;;;;;5.18;4.40;;;11.80;99.90;;;;;;5068713;28;20586;-89
2023/05/07 05:19:47;;;;;;;6.03;4.05;;;11.80;99.90;;;;;;5072087;28;20208;-90
2023/05/07 05:22:15;;;;;;;6.20;4.20;;;11.90;99.90;;;;;;5073852;28;20205;-89
2023/05/07 05:24:42;;;;;;;5.65;4.18;;;11.90;99.90;;;;;;5050445;28;20208;-89
2023/05/07 05:27:09;;;;;;;4.50;4.07;;;12.10;99.90;;;;;;5080232;28;20225;-89
2023/05/07 05:29:36;;;;;;;4.30;3.90;;;12.30;99.90;;;;;;5072148;28;20230;-89
2023/05/07 05:32:03;;;;;;;8.43;4.28;;;12.40;99.90;;;;;;5071732;28;20575;-90
2023/05/07 05:34:30;;;;;;;5.47;3.70;;;12.60;99.90;;;;;;5074075;28;20197;-89
2023/05/07 05:36:57;;;;;;;5.78;4.25;;;12.60;99.90;;;;;;5066573;28;20554;-89
2023/05/07 05:39:26;;;;;;;4.75;4.30;;;12.80;99.90;;;;;;5048612;28;20205;-89
2023/05/07 05:41:53;;;;;;;4.53;4.13;;;12.80;99.90;;;;;;5051747;28;20346;-90
2023/05/07 05:44:20;;;;;;;4.85;3.47;;;12.80;99.90;;;;;;5070964;28;20204;-89
2023/05/07 05:46:47;;;;;;;5.13;4.07;;;12.90;99.90;;;;;;5072979;28;20719;-89
2023/05/07 05:49:17;;;;;;;4.05;3.55;;;13.10;99.90;;;;;;5053876;28;20642;-89
2023/05/07 05:51:44;;;;;;;4.57;3.40;;;13.20;99.90;;;;;;5065694;28;20201;-90
2023/05/07 05:54:30;;;;;;;5.35;3.60;;;13.30;99.90;;;;;;5071428;28;20702;-90
2023/05/07 05:56:59;;;;;;;5.38;3.65;;;13.60;99.90;;;;;;5071068;28;20205;-89
2023/05/07 05:59:27;;;;;;;5.05;3.50;;;13.90;99.90;;;;;;5069448;28;20232;-90
2023/05/07 06:01:54;;;;;;;3.38;3.08;;;14.10;99.90;;;;;;5068343;28;20189;-90
2023/05/07 06:04:21;;;;;;;4.45;3.38;;;14.20;99.90;;;;;;5070258;28;20201;-89
2023/05/07 06:06:48;;;;;;;4.20;3.70;;;14.20;99.90;;;;;;5072282;28;20241;-90
2023/05/07 06:09:14;;;;;;;5.18;4.35;;;14.10;99.90;;;;;;5073989;28;20244;-89
2023/05/07 06:11:45;;;;;;;6.70;3.95;;;13.90;99.90;;;;;;5070185;28;20657;-89
2023/05/07 06:14:14;;;;;;;4.75;3.58;;;14.10;99.90;;;;;;5063583;28;20193;-90
2023/05/07 06:16:41;;;;;;;4.82;4.20;;;14.20;99.90;;;;;;5068930;28;20197;-89
2023/05/07 06:19:08;;;;;;;6.45;4.07;;;14.30;99.90;;;;;;5065219;28;20213;-90
2023/05/07 06:21:35;;;;;;;7.72;3.90;;;14.40;99.90;;;;;;5070139;28;20197;-89
2023/05/07 06:24:02;;;;;;;6.47;3.97;;;14.50;99.90;;;;;;5070020;28;20970;-89
2023/05/07 06:26:29;;;;;;;4.20;3.70;;;14.70;99.90;;;;;;5067129;28;20711;-90
2023/05/07 06:28:56;;;;;;;4.68;3.55;;;14.80;99.90;;;;;;5068697;28;20576;-90
2023/05/07 06:31:30;;;;;;;4.45;3.63;;;14.90;99.80;;;;;;5048460;28;20190;-89
2023/05/07 06:33:57;;;;;;;4.82;3.30;;;15.10;99.90;;;;;;5070973;28;20204;-89
2023/05/07 06:36:24;;;;;;;3.65;3.35;;;15.10;98.10;;;;;;5069124;28;20198;-90
2023/05/07 06:38:51;;;;;;;4.88;3.10;;;15.30;98.60;;;;;;5069665;28;20196;-90
2023/05/07 06:41:18;;;;;;;4.32;3.25;;;15.50;97.30;;;;;;5069859;28;20201;-89
2023/05/07 06:43:45;;;;;;;4.10;3.00;;;15.70;97.10;;;;;;5067853;28;20197;-90
2023/05/07 06:46:11;;;;;;;3.40;3.10;;;15.80;96.90;;;;;;5068806;28;20225;-89
2023/05/07 06:48:40;;;;;;;4.25;3.17;;;16.00;96.40;;;;;;5068124;28;20197;-89
2023/05/07 06:51:07;;;;;;;4.40;3.30;;;16.20;95.60;;;;;;5053157;28;20209;-89
2023/05/07 06:53:34;;;;;;;4.63;2.90;;;16.30;95.70;;;;;;5072404;28;20217;-90
2023/05/07 06:56:01;;;;;;;5.18;3.13;;;16.30;95.50;;;;;;5052850;28;20646;-90
2023/05/07 06:58:28;;;;;;;4.30;3.15;;;16.40;95.00;;;;;;5069776;28;20208;-89
2023/05/07 07:00:55;;;;;;;3.72;3.40;;;16.40;94.20;;;;;;5066833;28;20222;-89
2023/05/07 07:03:22;;;;;;;4.00;2.95;;;16.50;94.70;;;;;;5064865;28;20739;-88
2023/05/07 07:05:52;;;;;;;5.57;2.67;;;16.60;94.90;;;;;;5047572;28;20823;-88
2023/05/07 07:08:21;;;;;;;3.33;2.50;;;16.70;94.60;;;;;;5071209;28;20580;-89
2023/05/07 07:10:47;;;;;;;4.97;3.30;;;16.70;93.90;;;;;;5091398;28;20232;-90
2023/05/07 07:13:14;;;;;;;3.17;2.88;;;16.90;93.20;;;;;;5069142;28;20209;-89
2023/05/07 07:15:41;;;;;;;4.18;2.80;;;17.00;92.60;;;;;;5078500;28;20207;-89
2023/05/07 07:18:09;;;;;;;3.20;2.53;;;17.20;92.20;;;;;;5071621;28;20278;-89
2023/05/07 07:20:36;;;;;;;4.28;2.85;;;17.50;91.60;;;;;;5074028;28;20234;-90
2023/05/07 07:23:04;;;;;;;5.15;2.60;;;17.70;91.10;;;;;;5072643;28;20201;-90
2023/05/07 07:25:31;;;;;;;4.93;2.72;;;17.90;90.30;;;;;;5072947;28;20194;-90
2023/05/07 07:27:58;;;;;;;3.10;2.80;;;18.10;88.20;;;;;;5080803;28;20227;-89
2023/05/07 07:30:25;;;;;;;3.20;2.67;;;18.10;88.20;;;;;;5072174;28;20201;-89
2023/05/07 07:32:52;;;;;;;2.90;2.60;;;18.20;87.20;;;;;;5073417;28;20194;-90
2023/05/07 07:35:19;;;;;;;2.65;2.45;;;18.20;86.50;;;;;;5068742;28;20197;-90
2023/05/07 07:37:46;;;;;;;3.30;2.70;;;18.30;86.10;;;;;;5070574;28;20208;-91
2023/05/07 07:40:15;;;;;;;2.50;2.30;;;18.30;87.10;;;;;;5073679;28;20205;-90
2023/05/07 07:42:44;;;;;;;4.00;2.75;;;18.30;87.10;;;;;;5067463;28;20194;-88
2023/05/07 07:45:12;;;;;;;4.47;2.97;;;18.40;85.30;;;;;;5069888;28;20255;-89
2023/05/07 07:47:39;;;;;;;4.65;2.30;;;18.50;83.00;;;;;;5076147;28;20232;-88
2023/05/07 07:50:07;;;;;;;4.45;2.47;;;18.50;83.70;;;;;;5072685;28;20201;-89
2023/05/07 07:52:34;;;;;;;2.30;2.10;;;18.50;80.00;;;;;;5072143;28;20200;-88
2023/05/07 07:55:02;;;;;;;3.03;2.50;;;18.50;77.60;;;;;;5074379;28;20649;-89
2023/05/07 07:57:30;;;;;;;3.80;3.00;;;18.60;79.80;;;;;;5073679;28;20259;-90
2023/05/07 07:59:57;;;;;;;3.42;2.40;;;18.70;78.70;;;;;;5071515;28;20208;-89
2023/05/07 08:02:23;;;;;;;4.30;2.90;;;18.80;80.00;;;;;;5074541;28;20205;-89
2023/05/07 08:04:50;;;;;;;3.50;2.80;;;19.00;82.40;;;;;;5069072;28;20205;-90
2023/05/07 08:07:18;;;;;;;3.05;2.67;;;19.10;80.20;;;;;;5072799;28;20591;-89
2023/05/07 08:09:45;;;;;;;4.45;2.80;;;19.00;80.10;;;;;;5073933;28;20251;-90
2023/05/07 08:12:12;;;;;;;3.92;2.78;;;19.20;76.90;;;;;;5068245;28;20642;-89
2023/05/07 08:14:40;;;;;;;4.30;2.88;;;19.30;79.00;;;;;;5052019;28;20198;-90
2023/05/07 08:17:09;;;;;;;4.95;2.80;;;19.40;74.70;;;;;;5045130;28;20197;-88
2023/05/07 08:19:36;;;;;;;4.10;2.70;;;19.60;65.30;;;;;;5073154;28;20193;-90
2023/05/07 08:22:03;;;;;;;3.20;2.90;;;19.70;62.60;;;;;;5074792;28;20262;-91
2023/05/07 08:24:30;;;;;;;2.60;2.40;;;19.70;63.20;;;;;;5054129;28;20228;-91
2023/05/07 08:26:57;;;;;;;3.88;2.70;;;19.80;59.30;;;;;;5069665;28;20429;-91
2023/05/07 08:29:24;;;;;;;4.05;3.13;;;19.90;56.70;;;;;;5057692;28;20208;-90
2023/05/07 08:31:52;;;;;;;4.25;3.08;;;20.10;56.00;;;;;;5074344;28;20201;-91
2023/05/07 08:34:20;;;;;;;5.90;2.90;;;20.20;56.10;;;;;;5055994;28;20574;-90
2023/05/07 08:36:48;;;;;;;3.92;2.95;;;20.40;51.50;;;;;;5073839;28;20220;-92
2023/05/07 08:39:16;;;;;;;3.22;2.90;;;20.40;53.90;;;;;;5049014;28;20288;-90
2023/05/07 08:41:46;;;;;;;4.03;2.90;;;20.50;47.50;;;;;;5071348;28;21242;-91
2023/05/07 08:44:15;;;;;;;3.20;2.88;;;20.80;44.50;;;;;;5067120;28;20220;-91
2023/05/07 08:46:43;;;;;;;3.25;2.40;;;21.10;42.20;;;;;;5054825;28;20197;-92
2023/05/07 08:49:11;;;;;;;2.58;2.38;;;21.20;42.10;;;;;;5070011;28;20204;-87
2023/05/07 08:51:38;;;;;;;3.05;2.72;;;21.50;41.90;;;;;;5073299;28;20211;-88
2023/05/07 08:54:07;;;;;;;2.90;2.60;;;22.20;34.50;;;;;;5070941;28;20200;-86
2023/05/07 08:56:33;;;;;;;5.65;2.90;;;23.00;30.30;;;;;;5073292;28;20197;-87
2023/05/07 08:59:00;;;;;;;4.85;2.97;;;23.50;29.30;;;;;;5068171;28;20193;-88
2023/05/07 09:01:27;;;;;;;2.92;2.25;;;24.00;26.00;;;;;;5075314;28;20227;-86
2023/05/07 09:03:55;;;;;;;2.60;2.35;;;25.30;21.70;;;;;;5067526;28;20197;-87
2023/05/07 09:06:23;;;;;;;2.55;2.25;;;26.00;19.90;;;;;;5070275;28;20201;-86
2023/05/07 09:08:52;;;;;;;2.85;2.28;;;26.60;17.10;;;;;;5087559;28;20212;-85
2023/05/07 09:11:21;;;;;;;2.72;2.40;;;27.10;17.00;;;;;;5075191;28;20295;-83
2023/05/07 09:13:48;;;;;;;3.80;2.20;;;27.60;15.40;;;;;;5070485;28;20262;-84
2023/05/07 09:16:16;;;;;;;3.78;2.47;;;27.60;17.00;;;;;;5073690;28;20228;-83
2023/05/07 09:18:43;;;;;;;2.90;2.70;;;27.80;15.90;;;;;;5063800;28;20225;-84
2023/05/07 09:21:11;;;;;;;2.78;2.40;;;28.30;15.80;;;;;;5069621;28;20193;-88
2023/05/07 09:23:40;;;;;;;4.22;2.30;;;28.20;15.70;;;;;;5070056;28;20209;-87
2023/05/07 09:26:11;;;;;;;2.97;2.50;;;28.10;15.70;;;;;;5064756;28;20189;-86
2023/05/07 09:28:40;;;;;;;4.07;2.50;;;28.70;14.60;;;;;;5069626;28;20259;-87
2023/05/07 09:31:07;;;;;;;2.60;2.40;;;29.30;13.50;;;;;;5079423;28;20251;-92
2023/05/07 09:33:36;;;;;;;4.40;2.50;;;30.20;12.20;;;;;;5073561;28;20196;-86
2023/05/07 09:36:04;;;;;;;2.78;2.20;;;29.70;11.00;;;;;;5076105;28;20208;-88
2023/05/07 09:38:32;;;;;;;3.20;2.30;;;29.00;12.10;;;;;;5071586;28;20548;-85
2023/05/07 09:41:15;;;;;;;3.47;2.50;;;28.80;16.10;;;;;;5055681;28;20216;-86
2023/05/07 09:43:42;;;;;;;262.52;18.95;;;28.90;14.40;;;;;;5076969;28;20588;-86
2023/05/07 09:46:13;;;;;;;5.47;2.25;;;28.70;12.80;;;;;;5053515;28;20193;-88
2023/05/07 09:48:43;;;;;;;3.53;2.47;;;29.30;12.50;;;;;;5052021;28;20226;-89
2023/05/07 09:51:22;;;;;;;2.33;2.10;;;29.70;11.90;;;;;;5055948;28;20295;-89
2023/05/07 09:53:51;;;;;;;2.33;2.08;;;30.30;10.20;;;;;;5069435;28;20201;-89
2023/05/07 09:56:25;;;;;;;5.03;2.50;;;30.10;10.90;;;;;;5066897;28;20201;-87
2023/05/07 09:58:54;;;;;;;4.18;2.55;;;29.70;11.80;;;;;;5080884;28;20201;-93
2023/05/07 10:01:22;;;;;;;2.78;2.47;;;29.90;10.40;;;;;;5060733;28;20211;-87
2023/05/07 10:03:52;;;;;;;3.45;2.70;;;29.70;11.40;;;;;;5043954;28;20204;-89
2023/05/07 10:06:20;;;;;;;2.97;2.63;;;29.80;12.20;;;;;;5067725;28;20211;-87
2023/05/07 10:08:47;;;;;;;3.70;2.45;;;30.00;9.20;;;;;;5043811;28;20228;-84
2023/05/07 10:11:15;;;;;;;2.28;2.17;;;30.30;8.70;;;;;;5060235;28;20204;-86
2023/05/07 10:13:44;;;;;;;2.67;2.20;;;29.60;10.90;;;;;;5071915;28;20189;-85
2023/05/07 10:16:11;;;;;;;3.58;2.65;;;29.10;9.30;;;;;;5059959;28;20201;-86
2023/05/07 10:18:39;;;;;;;2.45;2.25;;;29.30;10.20;;;;;;5059106;28;20754;-84
2023/05/07 10:21:09;;;;;;;2.67;2.33;;;28.40;11.80;;;;;;5070491;28;20205;-86
2023/05/07 10:23:37;;;;;;;2.35;2.10;;;27.90;11.90;;;;;;5068818;28;20201;-86
2023/05/07 10:26:07;;;;;;;3.28;2.00;;;28.00;12.50;;;;;;5050156;28;20834;-84
2023/05/07 10:28:38;;;;;;;4.10;2.20;;;27.80;11.50;;;;;;5064497;28;20217;-84
2023/05/07 10:31:33;;;;;;;3.28;2.22;;;27.30;13.40;;;;;;5070369;28;20193;-82
2023/05/07 10:34:01;;;;;;;2.58;2.38;;;27.60;13.80;;;;;;5059316;28;20212;-90
2023/05/07 10:36:34;;;;;;;2.40;2.15;;;27.10;16.00;;;;;;5071383;28;20186;-88
2023/05/07 10:39:04;;;;;;;4.00;2.00;;;26.70;15.00;;;;;;5057121;28;20208;-88
2023/05/07 10:41:31;;;;;;;3.88;2.17;;;26.10;14.70;;;;;;5059702;28;20248;-90
2023/05/07 10:47:58;;;;;;;2.00;1.80;;;26.20;14.70;;;;;;5078127;28;20180;-87
2023/05/07 10:50:26;;;;;;;4.10;1.90;;;26.20;14.70;;;;;;5065279;28;20211;-86
2023/05/07 10:53:30;;;;;;;2.22;1.85;;;26.10;14.70;;;;;;5037847;28;20204;-85
2023/05/07 10:56:30;;;;;;;2.58;2.28;;;26.50;14.00;;;;;;5066527;28;20192;-87
2023/05/07 10:59:12;;;;;;;3.38;2.47;;;26.40;15.50;;;;;;5054395;28;20547;-85
2023/05/07 11:01:53;;;;;;;2.40;2.20;;;26.00;17.80;;;;;;5070122;28;20185;-86
2023/05/07 11:04:25;;;;;;;4.25;2.22;;;25.90;18.20;;;;;;5048874;28;20242;-85
2023/05/07 11:07:31;;;;;;;2.50;2.08;;;25.90;16.00;;;;;;5053647;28;20193;-86
2023/05/07 11:10:01;;;;;;;2.97;2.30;;;25.50;18.10;;;;;;5073405;28;20281;-85
2023/05/07 11:12:53;;;;;;;2.75;2.25;;;25.60;16.00;;;;;;5073785;28;20660;-85
2023/05/07 11:15:41;;;;;;;5.65;2.13;;;24.90;17.80;;;;;;5049107;28;20288;-85
2023/05/07 11:18:09;;;;;;;2.63;2.00;;;24.60;19.90;;;;;;5051639;28;20573;-86
2023/05/07 11:20:54;;;;;;;4.82;3.00;;;24.60;19.10;;;;;;5057735;28;20192;-86
2023/05/07 11:24:10;;;;;;;3.08;2.53;;;24.30;19.90;;;;;;5055113;28;20197;-87
2023/05/07 11:26:47;;;;;;;4.97;2.65;;;24.20;20.10;;;;;;5067632;28;20653;-88
2023/05/07 11:29:15;;;;;;;2.90;2.60;;;24.30;20.90;;;;;;5046137;28;20255;-88
2023/05/07 11:31:42;;;;;;;3.35;3.00;;;24.70;20.60;;;;;;5070901;28;20228;-87
2023/05/07 11:34:09;;;;;;;5.15;3.50;;;24.80;20.00;;;;;;5052971;28;20200;-89
2023/05/07 11:36:42;;;;;;;4.30;3.38;;;25.10;19.50;;;;;;5072728;28;20207;-87
2023/05/07 11:39:25;;;;;;;5.63;3.95;;;25.10;20.00;;;;;;5072275;28;20649;-88
2023/05/07 11:41:53;;;;;;;3.70;3.33;;;24.90;22.30;;;;;;5053839;28;20202;-88
2023/05/07 11:44:20;;;;;;;5.70;3.35;;;24.50;20.60;;;;;;5071228;28;20662;-87
2023/05/07 11:46:47;;;;;;;4.10;3.50;;;24.20;21.40;;;;;;5048822;28;20963;-88
2023/05/07 11:49:15;;;;;;;3.92;3.50;;;24.10;21.90;;;;;;5052411;28;20221;-91
2023/05/07 11:51:42;;;;;;;3.13;2.80;;;24.10;22.10;;;;;;5081195;28;20684;-89
2023/05/07 11:54:11;;;;;;;4.10;3.53;;;24.00;24.70;;;;;;5033011;28;20288;-90
2023/05/07 11:56:38;;;;;;;3.53;3.22;;;23.80;24.50;;;;;;5069158;28;20205;-89
2023/05/07 11:59:13;;;;;;;6.38;3.78;;;23.70;23.40;;;;;;5069035;28;20209;-88
2023/05/07 12:01:41;;;;;;;3.72;3.15;;;23.60;23.20;;;;;;5072634;28;20189;-88
2023/05/07 12:04:08;;;;;;;4.70;3.28;;;23.60;24.90;;;;;;5064800;28;20669;-87
2023/05/07 12:06:39;;;;;;;4.32;3.90;;;23.80;23.90;;;;;;5071407;28;20205;-88
2023/05/07 12:09:11;;;;;;;3.65;3.35;;;23.80;23.50;;;;;;5070986;28;20224;-88
2023/05/07 12:11:40;;;;;;;4.20;3.70;;;23.90;23.20;;;;;;5069547;28;20595;-89
2023/05/07 12:14:09;;;;;;;4.30;3.20;;;23.90;21.60;;;;;;5057476;28;20194;-88
2023/05/07 12:16:36;;;;;;;4.28;3.17;;;23.70;23.40;;;;;;5062883;28;20539;-88
2023/05/07 12:19:06;;;;;;;4.20;3.13;;;23.90;22.30;;;;;;5038288;28;20230;-89
2023/05/07 12:21:34;;;;;;;5.55;2.95;;;24.00;22.10;;;;;;5059792;28;20209;-87
2023/05/07 12:24:01;;;;;;;5.03;2.90;;;24.10;24.20;;;;;;5059099;28;20193;-89
2023/05/07 12:26:29;;;;;;;3.25;2.95;;;24.10;21.30;;;;;;5056010;28;20206;-90
2023/05/07 12:28:58;;;;;;;3.67;3.13;;;24.10;21.70;;;;;;5071223;28;20233;-88
2023/05/07 12:31:28;;;;;;;4.43;3.20;;;23.90;22.00;;;;;;5072696;28;20579;-87
2023/05/07 12:33:55;;;;;;;4.57;2.70;;;24.00;23.60;;;;;;5050574;28;20202;-88
2023/05/07 12:36:22;;;;;;;3.65;2.63;;;24.30;21.00;;;;;;5068412;28;20209;-88
2023/05/07 12:38:50;;;;;;;4.80;2.85;;;24.30;20.80;;;;;;5071128;28;20194;-88
2023/05/07 12:41:18;;;;;;;5.20;2.90;;;24.20;21.60;;;;;;5053370;28;20619;-88
2023/05/07 12:43:46;;;;;;;3.25;2.90;;;24.30;20.90;;;;;;5058797;28;20196;-88
2023/05/07 12:46:23;;;;;;;2.78;2.53;;;24.20;20.80;;;;;;5073535;28;20212;-89
2023/05/07 12:52:00;;;;;;;3.13;2.83;;;24.30;20.00;;;;;;5606862;22;20572;-96
2023/05/07 12:54:48;;;;;;;3.08;2.53;;;24.00;20.30;;;;;;5051933;28;20218;-88
2023/05/07 12:57:20;;;;;;;3.58;2.60;;;23.90;19.70;;;;;;5054061;28;20623;-91
2023/05/07 12:59:47;;;;;;;3.15;2.38;;;23.50;19.80;;;;;;5059812;28;20661;-93
2023/05/07 13:02:17;;;;;;;5.00;2.63;;;23.20;21.70;;;;;;5060079;28;20273;-91